Terminal Aerodrome Forecast
Issued by NWS

Home | Current Version | Previous Version | Text Only | Print | Product List | Glossary On
Versions: 1 2 3 4 5 6 7 8 9 10 11 12 13 14 15 16
000
FTUS41 KBTV 210500
TAFPBG
TAF
KPBG 210520Z 2106/2206 VRB02KT P6SM BKN100
     FM211400 15010G18KT P6SM BKN100
     FM220000 VRB02KT P6SM OVC080=

USA.gov is the U.S. government's official web portal to all federal, state and local government web resources and services.